createdAt,value
2024-03-12T00:02:48.656Z,4.03
2024-03-12T00:05:36.189Z,2.40
2024-03-12T00:08:25.273Z,3.67
2024-03-12T00:11:12.723Z,2.63
2024-03-12T00:14:00.841Z,2.60
2024-03-12T00:16:48.370Z,3.00
2024-03-12T00:19:36.201Z,2.07
2024-03-12T00:22:23.668Z,2.33
2024-03-12T00:25:12.768Z,5.70
2024-03-12T00:28:00.547Z,2.70
2024-03-12T00:30:47.920Z,1.73
2024-03-12T00:33:35.784Z,2.10
2024-03-12T00:36:23.496Z,2.40
2024-03-12T00:39:11.611Z,1.80
2024-03-12T00:42:00.491Z,2.00
2024-03-12T00:44:49.763Z,1.80
2024-03-12T00:47:38.055Z,2.77
2024-03-12T00:50:25.708Z,2.00
2024-03-12T00:53:14.501Z,2.40
2024-03-12T00:56:04.347Z,3.03
2024-03-12T00:58:53.536Z,3.07
2024-03-12T01:01:40.871Z,2.00
2024-03-12T01:04:28.629Z,3.27
2024-03-12T01:07:17.483Z,2.10
2024-03-12T01:10:07.278Z,2.90
2024-03-12T01:12:56.710Z,2.13
2024-03-12T01:15:47.218Z,1.93
2024-03-12T01:18:34.665Z,1.60
2024-03-12T01:21:22.477Z,2.70
2024-03-12T01:24:09.730Z,1.93
2024-03-12T01:26:57.583Z,1.60
2024-03-12T01:29:44.856Z,1.60
2024-03-12T01:32:34.312Z,2.07
2024-03-12T01:35:22.297Z,3.53
2024-03-12T01:38:11.945Z,2.87
2024-03-12T01:41:00.084Z,2.90
2024-03-12T01:43:56.574Z,2.50
2024-03-12T01:46:56.072Z,2.33
2024-03-12T01:49:45.679Z,1.60
2024-03-12T01:52:33.060Z,2.03
2024-03-12T01:55:21.033Z,2.63
2024-03-12T01:58:08.655Z,2.00
2024-03-12T02:00:56.643Z,1.77
2024-03-12T02:03:48.699Z,2.10
2024-03-12T02:06:37.696Z,2.47
2024-03-12T02:09:26.650Z,1.83
2024-03-12T02:12:13.880Z,1.77
2024-03-12T02:15:04.462Z,2.20
2024-03-12T02:17:53.418Z,2.57
2024-03-12T02:20:41.611Z,2.20
2024-03-12T02:23:37.813Z,2.70
2024-03-12T02:26:26.035Z,2.07
2024-03-12T02:29:14.488Z,2.37
2024-03-12T02:32:01.792Z,2.73
2024-03-12T02:34:50.701Z,1.73
2024-03-12T02:37:39.998Z,4.23
2024-03-12T02:40:29.588Z,3.60
2024-03-12T02:43:17.049Z,2.20
2024-03-12T02:46:04.762Z,2.43
2024-03-12T02:48:52.882Z,2.90
2024-03-12T02:51:40.681Z,2.60
2024-03-12T02:54:28.007Z,2.10
2024-03-12T02:57:16.938Z,2.33
2024-03-12T03:00:15.079Z,3.07
2024-03-12T03:03:04.378Z,1.97
2024-03-12T03:05:51.639Z,1.80
2024-03-12T03:08:39.258Z,2.33
2024-03-12T03:11:26.852Z,2.17
2024-03-12T03:14:16.114Z,3.33
2024-03-12T03:17:03.365Z,3.00
2024-03-12T03:19:51.778Z,3.17
2024-03-12T03:22:39.319Z,3.57
2024-03-12T03:25:27.365Z,2.40
2024-03-12T03:28:15.655Z,2.27
2024-03-12T03:31:05.528Z,2.20
2024-03-12T03:33:53.312Z,3.00
2024-03-12T03:36:41.138Z,2.80
2024-03-12T03:39:33.034Z,2.33
2024-03-12T03:42:21.552Z,2.30
2024-03-12T03:45:09.395Z,2.93
2024-03-12T03:47:58.386Z,2.20
2024-03-12T03:50:46.328Z,4.23
2024-03-12T03:53:34.316Z,3.13
2024-03-12T03:56:23.181Z,3.07
2024-03-12T03:59:14.304Z,3.93
2024-03-12T04:02:02.059Z,2.73
2024-03-12T04:04:50.812Z,2.23
2024-03-12T04:07:39.420Z,3.40
2024-03-12T04:10:27.088Z,2.40
2024-03-12T04:13:15.774Z,2.77
2024-03-12T04:16:04.904Z,2.60
2024-03-12T04:18:52.253Z,3.10
2024-03-12T04:21:41.197Z,2.60
2024-03-12T04:24:28.747Z,3.47
2024-03-12T04:27:16.782Z,3.27
2024-03-12T04:30:05.766Z,4.43
2024-03-12T04:32:53.380Z,4.13
2024-03-12T04:35:40.833Z,4.00
2024-03-12T04:38:31.700Z,2.90
2024-03-12T04:41:22.109Z,2.70
2024-03-12T04:44:09.530Z,3.37
2024-03-12T04:46:57.389Z,3.37
2024-03-12T04:49:44.659Z,4.53
2024-03-12T04:52:35.135Z,3.80
2024-03-12T04:55:24.921Z,4.73
2024-03-12T04:58:12.810Z,3.80
2024-03-12T05:01:00.776Z,3.60
2024-03-12T05:03:48.004Z,3.33
2024-03-12T05:06:36.041Z,5.30
2024-03-12T05:09:24.729Z,3.43
2024-03-12T05:12:13.408Z,4.00
2024-03-12T05:15:01.212Z,4.90
2024-03-12T05:17:49.917Z,4.03
2024-03-12T05:20:37.879Z,3.97
2024-03-12T05:23:25.229Z,5.30
2024-03-12T05:26:13.087Z,3.70
2024-03-12T05:29:02.728Z,4.67
2024-03-12T05:31:50.709Z,4.53
2024-03-12T05:34:40.671Z,5.00
2024-03-12T05:37:41.929Z,4.33
2024-03-12T05:40:47.746Z,4.13
2024-03-12T05:43:54.185Z,4.30
2024-03-12T05:47:01.672Z,5.27
2024-03-12T05:49:49.161Z,5.33
2024-03-12T05:52:36.506Z,4.70
2024-03-12T05:55:24.229Z,5.63
2024-03-12T05:58:13.880Z,5.20
2024-03-12T06:01:01.257Z,5.90
2024-03-12T06:03:51.372Z,5.60
2024-03-12T06:06:39.007Z,6.47
2024-03-12T06:09:28.558Z,4.90
2024-03-12T06:12:15.853Z,4.73
2024-03-12T06:15:06.370Z,7.57
2024-03-12T06:17:53.994Z,6.33
2024-03-12T06:20:47.324Z,5.73
2024-03-12T06:23:34.637Z,5.03
2024-03-12T06:26:23.288Z,6.33
2024-03-12T06:29:11.368Z,7.27
2024-03-12T06:31:59.234Z,5.90
2024-03-12T06:34:48.733Z,4.13
2024-03-12T06:37:37.809Z,4.37
2024-03-12T06:40:26.467Z,6.93
2024-03-12T06:43:16.470Z,4.03
2024-03-12T06:46:04.146Z,4.37
2024-03-12T06:48:54.262Z,4.60
2024-03-12T06:51:42.093Z,5.60
2024-03-12T06:54:34.114Z,5.13
2024-03-12T06:57:23.452Z,5.87
2024-03-12T07:00:14.675Z,4.87
2024-03-12T07:03:04.167Z,4.17
2024-03-12T07:05:52.072Z,4.57
2024-03-12T07:08:40.713Z,2.83
2024-03-12T07:11:30.489Z,2.60
2024-03-12T07:14:38.244Z,2.97
2024-03-12T07:17:26.908Z,2.80
2024-03-12T07:20:21.821Z,4.63
2024-03-12T07:23:09.965Z,2.90
2024-03-12T07:25:59.292Z,2.90
2024-03-12T07:28:48.187Z,5.30
2024-03-12T07:31:36.360Z,3.93
2024-03-12T07:34:23.778Z,3.57
2024-03-12T07:37:13.390Z,3.07
2024-03-12T07:40:00.707Z,3.20
2024-03-12T07:42:48.570Z,2.30
2024-03-12T07:45:37.205Z,3.40
2024-03-12T07:48:25.135Z,4.30
2024-03-12T07:51:12.657Z,3.83
2024-03-12T07:54:01.040Z,4.17
2024-03-12T07:56:51.888Z,2.87
2024-03-12T07:59:39.894Z,3.23
2024-03-12T08:02:28.772Z,2.00
2024-03-12T08:05:16.484Z,2.20
2024-03-12T08:08:07.554Z,3.57
2024-03-12T08:10:56.141Z,2.30
2024-03-12T08:13:43.520Z,3.57
2024-03-12T08:16:31.197Z,2.47
2024-03-12T08:19:20.223Z,3.83
2024-03-12T08:22:09.622Z,4.07
2024-03-12T08:24:57.674Z,2.40
2024-03-12T08:27:45.433Z,3.47
2024-03-12T08:30:34.301Z,3.63
2024-03-12T08:33:21.821Z,3.00
2024-03-12T08:36:11.909Z,2.53
2024-03-12T08:39:00.462Z,4.20
2024-03-12T08:41:47.761Z,5.53
2024-03-12T08:44:35.045Z,5.70
2024-03-12T08:47:22.385Z,2.60
2024-03-12T08:50:11.098Z,3.10
2024-03-12T08:52:59.973Z,2.53
2024-03-12T08:55:47.598Z,3.97
2024-03-12T08:58:34.866Z,2.70
2024-03-12T09:01:22.323Z,3.20
2024-03-12T09:04:10.335Z,2.23
2024-03-12T09:06:59.262Z,4.87
2024-03-12T09:09:50.068Z,2.87
2024-03-12T09:12:39.474Z,2.23
2024-03-12T09:15:27.940Z,2.70
2024-03-12T09:18:23.594Z,1.83
2024-03-12T09:21:14.478Z,3.10
2024-03-12T09:24:02.903Z,4.67
2024-03-12T09:26:53.035Z,4.30
2024-03-12T09:29:40.751Z,3.03
2024-03-12T09:32:29.692Z,4.43
2024-03-12T09:35:17.011Z,2.83
2024-03-12T09:38:04.989Z,3.30
2024-03-12T09:40:54.771Z,2.70
2024-03-12T09:43:45.447Z,3.80
2024-03-12T09:46:32.826Z,2.47
2024-03-12T09:49:20.698Z,1.80
2024-03-12T09:52:08.670Z,1.57
2024-03-12T09:54:56.865Z,3.23
2024-03-12T09:57:48.314Z,4.50
2024-03-12T10:00:37.956Z,2.87
2024-03-12T10:03:25.730Z,1.97
2024-03-12T10:06:14.332Z,2.40
2024-03-12T10:09:02.469Z,2.30
2024-03-12T10:11:50.013Z,3.00
2024-03-12T10:14:37.713Z,1.83
2024-03-12T10:17:26.600Z,8.50
2024-03-12T10:20:17.649Z,2.13
2024-03-12T10:23:11.031Z,2.33
2024-03-12T10:26:11.235Z,2.33
2024-03-12T10:29:09.746Z,3.27
2024-03-12T10:31:57.540Z,1.90
2024-03-12T10:34:46.305Z,3.83
2024-03-12T10:37:37.173Z,3.07
2024-03-12T10:40:27.280Z,2.47
2024-03-12T10:43:21.711Z,4.10
2024-03-12T10:46:11.952Z,2.23
2024-03-12T10:49:01.188Z,3.33
2024-03-12T10:51:50.199Z,3.47
2024-03-12T10:54:43.580Z,3.53
2024-03-12T10:57:34.565Z,2.70
2024-03-12T11:00:22.867Z,2.13
2024-03-12T11:03:10.655Z,3.03
2024-03-12T11:05:58.965Z,1.93
2024-03-12T11:08:47.891Z,3.00
2024-03-12T11:11:35.808Z,2.23
2024-03-12T11:14:23.710Z,3.97
2024-03-12T11:17:25.476Z,2.13
2024-03-12T11:20:13.948Z,2.50
2024-03-12T11:23:02.504Z,2.60
2024-03-12T11:25:51.730Z,2.13
2024-03-12T11:28:49.690Z,1.50
2024-03-12T11:31:39.769Z,2.07
2024-03-12T11:34:36.749Z,2.17
2024-03-12T11:37:25.571Z,3.03
2024-03-12T11:40:29.422Z,5.07
2024-03-12T11:43:40.950Z,2.30
2024-03-12T11:46:42.734Z,1.63
2024-03-12T11:49:33.676Z,2.90
2024-03-12T11:52:22.086Z,1.43
2024-03-12T11:55:12.952Z,1.43
2024-03-12T11:58:01.163Z,2.10
2024-03-12T12:00:52.408Z,2.63
2024-03-12T12:03:39.772Z,2.23
2024-03-12T12:06:27.873Z,1.70
2024-03-12T12:09:15.610Z,2.23
2024-03-12T12:12:05.282Z,1.23
2024-03-12T12:14:55.748Z,1.87
2024-03-12T12:17:44.507Z,2.60
2024-03-12T12:20:33.345Z,3.60
2024-03-12T12:23:21.664Z,1.33
2024-03-12T12:26:13.428Z,1.27
2024-03-12T12:29:02.105Z,0.90
2024-03-12T12:31:53.105Z,0.93
2024-03-12T12:34:42.706Z,1.00
2024-03-12T12:37:30.368Z,3.27
2024-03-12T12:40:19.042Z,1.07
2024-03-12T12:43:07.044Z,2.50
2024-03-12T12:45:56.217Z,1.10
2024-03-12T12:48:47.909Z,2.40
2024-03-12T12:51:38.826Z,1.10
2024-03-12T12:54:27.994Z,0.97
2024-03-12T12:57:15.852Z,1.20
2024-03-12T13:00:16.677Z,2.10
2024-03-12T13:03:17.467Z,1.83
2024-03-12T13:06:17.390Z,1.13
2024-03-12T13:09:05.994Z,1.30
2024-03-12T13:11:54.922Z,1.10
2024-03-12T13:14:45.770Z,0.87
2024-03-12T13:17:33.050Z,1.40
2024-03-12T13:20:20.979Z,1.33
2024-03-12T13:23:10.208Z,1.20
2024-03-12T13:25:59.008Z,0.97
2024-03-12T13:28:55.353Z,1.00
2024-03-12T13:31:43.450Z,2.43
2024-03-12T13:34:31.221Z,1.37
2024-03-12T13:37:19.258Z,1.80
2024-03-12T13:40:08.358Z,1.77
2024-03-12T13:42:57.556Z,2.43
2024-03-12T13:45:45.651Z,1.30
2024-03-12T13:48:37.791Z,1.40
2024-03-12T13:51:25.952Z,1.47
2024-03-12T13:54:13.254Z,2.30
2024-03-12T13:57:01.055Z,1.60
2024-03-12T13:59:49.975Z,2.47
2024-03-12T14:02:37.860Z,2.97
2024-03-12T14:05:25.837Z,1.63
2024-03-12T14:08:15.450Z,3.03
2024-03-12T14:11:03.118Z,3.77
2024-03-12T14:13:52.227Z,4.80
2024-03-12T14:16:41.231Z,4.33
2024-03-12T14:19:28.859Z,3.53
2024-03-12T14:22:16.082Z,4.47
2024-03-12T14:25:06.767Z,5.73
2024-03-12T14:27:54.404Z,3.57
2024-03-12T14:30:41.787Z,3.37
2024-03-12T14:33:30.659Z,4.40
2024-03-12T14:36:18.441Z,3.90
2024-03-12T14:39:09.279Z,3.40
2024-03-12T14:41:57.214Z,3.43
2024-03-12T14:44:44.646Z,3.83
2024-03-12T14:47:33.796Z,4.37
2024-03-12T14:50:23.450Z,4.30
2024-03-12T14:53:11.367Z,3.83
2024-03-12T14:56:01.757Z,4.23
2024-03-12T14:58:49.493Z,5.33
2024-03-12T15:01:36.970Z,3.27
2024-03-12T15:04:24.890Z,3.80
2024-03-12T15:07:14.658Z,4.07
2024-03-12T15:10:03.506Z,4.33
2024-03-12T15:12:53.786Z,5.80
2024-03-12T15:18:32.798Z,5.37
2024-03-12T15:21:21.514Z,3.33
2024-03-12T15:24:10.620Z,2.90
2024-03-12T15:26:58.518Z,3.70
2024-03-12T15:29:46.223Z,4.83
2024-03-12T15:32:33.519Z,4.33
2024-03-12T15:35:21.422Z,4.17
2024-03-12T15:38:08.702Z,3.83
2024-03-12T15:40:58.938Z,4.13
2024-03-12T15:43:46.314Z,3.73
2024-03-12T15:46:34.538Z,4.67
2024-03-12T15:49:22.142Z,4.80
2024-03-12T15:52:09.449Z,6.33
2024-03-12T15:54:57.318Z,3.40
2024-03-12T15:57:47.274Z,4.17
2024-03-12T16:00:37.084Z,5.40
2024-03-12T16:03:25.080Z,4.07
2024-03-12T16:06:15.769Z,5.83
2024-03-12T16:09:03.193Z,4.43
2024-03-12T16:11:51.048Z,5.30
2024-03-12T16:14:39.761Z,3.97
2024-03-12T16:17:31.112Z,4.50
2024-03-12T16:20:20.497Z,4.70
2024-03-12T16:23:07.880Z,4.50
2024-03-12T16:25:55.240Z,6.53
2024-03-12T16:28:42.945Z,5.10
2024-03-12T16:31:31.697Z,4.37
2024-03-12T16:34:19.312Z,5.67
2024-03-12T16:37:07.308Z,8.37
2024-03-12T16:39:54.904Z,5.90
2024-03-12T16:42:43.662Z,5.53
2024-03-12T16:45:31.054Z,7.23
2024-03-12T16:48:20.065Z,5.43
2024-03-12T16:51:07.385Z,5.40
2024-03-12T16:53:55.387Z,3.80
2024-03-12T16:56:44.744Z,4.37
2024-03-12T16:59:33.011Z,5.20
2024-03-12T17:02:21.971Z,7.23
2024-03-12T17:05:14.223Z,3.93
2024-03-12T17:08:02.362Z,3.80
2024-03-12T17:10:50.792Z,4.17
2024-03-12T17:13:40.155Z,3.30
2024-03-12T17:16:29.227Z,5.27
2024-03-12T17:19:19.482Z,6.33
2024-03-12T17:22:11.524Z,6.20
2024-03-12T17:25:01.337Z,4.07
2024-03-12T17:27:52.669Z,4.70
2024-03-12T17:30:40.975Z,4.30
2024-03-12T17:33:29.042Z,5.57
2024-03-12T17:36:21.853Z,4.13
2024-03-12T17:39:13.352Z,5.20
2024-03-12T17:42:02.393Z,5.77
2024-03-12T17:44:50.790Z,5.40
2024-03-12T17:47:38.355Z,6.57
2024-03-12T17:50:32.042Z,5.77
2024-03-12T17:53:21.964Z,5.57
2024-03-12T17:56:14.408Z,8.63
2024-03-12T17:59:03.054Z,6.97
2024-03-12T18:01:53.135Z,6.30
2024-03-12T18:04:42.139Z,8.20
2024-03-12T18:07:37.184Z,8.10
2024-03-12T18:10:27.770Z,7.67
2024-03-12T18:13:17.503Z,6.80
2024-03-12T18:16:07.268Z,6.80
2024-03-12T18:18:54.705Z,6.40
2024-03-12T18:21:42.404Z,11.33
2024-03-12T18:24:30.377Z,8.70
2024-03-12T18:27:20.264Z,7.07
2024-03-12T18:30:13.367Z,8.27
2024-03-12T18:33:02.443Z,5.57
2024-03-12T18:35:52.606Z,9.43
2024-03-12T18:38:41.249Z,8.60
2024-03-12T18:41:28.622Z,6.17
2024-03-12T18:44:16.770Z,8.37
2024-03-12T18:47:06.348Z,6.63
2024-03-12T18:49:55.988Z,7.37
2024-03-12T18:52:45.631Z,7.07
2024-03-12T18:55:34.296Z,7.97
2024-03-12T18:58:22.202Z,9.03
2024-03-12T19:01:10.529Z,9.87
2024-03-12T19:04:00.293Z,9.33
2024-03-12T19:06:49.017Z,8.73
2024-03-12T19:09:38.518Z,7.83
2024-03-12T19:12:27.131Z,7.37
2024-03-12T19:15:16.576Z,7.33
2024-03-12T19:18:14.865Z,6.13
2024-03-12T19:21:06.683Z,7.70
2024-03-12T19:23:55.630Z,6.63
2024-03-12T19:26:43.680Z,7.70
2024-03-12T19:29:31.311Z,7.97
2024-03-12T19:32:19.107Z,8.17
2024-03-12T19:35:08.588Z,7.70
2024-03-12T19:37:59.856Z,9.13
2024-03-12T19:40:47.696Z,10.20
2024-03-12T19:43:36.227Z,9.20
2024-03-12T19:46:26.223Z,9.40
2024-03-12T19:49:16.889Z,9.17
2024-03-12T19:52:06.239Z,8.60
2024-03-12T19:54:54.915Z,6.80
2024-03-12T19:57:43.281Z,6.70
2024-03-12T20:00:32.161Z,8.27
2024-03-12T20:03:23.304Z,8.03
2024-03-12T20:06:14.310Z,7.47
2024-03-12T20:09:01.688Z,10.47
2024-03-12T20:11:54.407Z,8.00
2024-03-12T20:14:42.652Z,7.10
2024-03-12T20:17:30.351Z,9.53
2024-03-12T20:20:23.125Z,6.83
2024-03-12T20:23:12.144Z,8.77
2024-03-12T20:26:01.400Z,7.27
2024-03-12T20:28:50.491Z,7.83
2024-03-12T20:31:37.861Z,9.70
2024-03-12T20:34:25.612Z,8.07
2024-03-12T20:37:13.295Z,9.93
2024-03-12T20:40:01.142Z,8.03
2024-03-12T20:42:49.606Z,11.20
2024-03-12T20:45:39.984Z,8.23
2024-03-12T20:48:27.620Z,10.23
2024-03-12T20:51:15.489Z,10.57
2024-03-12T20:54:04.263Z,8.20
2024-03-12T20:56:52.000Z,8.93
2024-03-12T20:59:42.330Z,9.70
2024-03-12T21:02:30.950Z,9.43
2024-03-12T21:05:19.513Z,8.00
2024-03-12T21:08:08.251Z,9.03
2024-03-12T21:10:55.618Z,8.57
2024-03-12T21:13:44.159Z,8.60
2024-03-12T21:16:31.954Z,8.43
2024-03-12T21:19:21.587Z,8.87
2024-03-12T21:22:09.410Z,8.93
2024-03-12T21:24:59.441Z,9.33
2024-03-12T21:27:48.134Z,9.73
2024-03-12T21:30:54.710Z,7.73
2024-03-12T21:33:41.984Z,9.03
2024-03-12T21:36:31.070Z,7.87
2024-03-12T21:39:20.004Z,11.00
2024-03-12T21:42:07.512Z,10.17
2024-03-12T21:44:54.919Z,8.10
2024-03-12T21:47:45.868Z,9.33
2024-03-12T21:50:35.131Z,8.70
2024-03-12T21:53:24.629Z,10.43
2024-03-12T21:56:13.197Z,7.90
2024-03-12T21:59:00.744Z,9.07
2024-03-12T22:01:48.793Z,8.17
2024-03-12T22:04:37.297Z,10.13
2024-03-12T22:07:27.686Z,7.97
2024-03-12T22:10:17.550Z,8.23
2024-03-12T22:13:05.211Z,9.13
2024-03-12T22:15:53.710Z,8.83
2024-03-12T22:18:41.020Z,7.67
2024-03-12T22:21:28.763Z,7.20
2024-03-12T22:24:23.156Z,9.23
2024-03-12T22:27:12.173Z,9.30
2024-03-12T22:30:00.361Z,10.47
2024-03-12T22:32:48.976Z,10.17
2024-03-12T22:35:36.369Z,9.53
2024-03-12T22:38:25.035Z,8.40
2024-03-12T22:41:12.906Z,8.83
2024-03-12T22:44:02.526Z,10.10
2024-03-12T22:46:50.616Z,9.20
2024-03-12T22:49:38.945Z,7.63
2024-03-12T22:52:28.941Z,12.83
2024-03-12T22:55:17.662Z,8.53
2024-03-12T22:58:09.593Z,10.07
2024-03-12T23:01:00.070Z,10.33
2024-03-12T23:03:47.689Z,9.73
2024-03-12T23:06:36.514Z,8.40
2024-03-12T23:09:24.754Z,11.10
2024-03-12T23:12:12.834Z,10.23
2024-03-12T23:15:01.099Z,7.57
2024-03-12T23:17:50.570Z,10.97
2024-03-12T23:20:40.704Z,8.87
2024-03-12T23:23:28.902Z,9.90
2024-03-12T23:26:18.331Z,10.87
2024-03-12T23:29:06.011Z,10.63
2024-03-12T23:31:55.114Z,10.03
2024-03-12T23:34:43.746Z,10.40
2024-03-12T23:37:31.861Z,9.93
2024-03-12T23:40:19.179Z,9.43
2024-03-12T23:43:06.999Z,9.80
2024-03-12T23:45:54.302Z,11.67
2024-03-12T23:48:43.809Z,10.27
2024-03-12T23:51:34.339Z,10.70
2024-03-12T23:54:22.039Z,11.00
2024-03-12T23:57:12.373Z,12.13
2024-03-12T23:59:59.659Z,12.97
